Hoxie, Texas
Current Conditions -  °F | °C
As of 6:58 PM on Sunday 23 Nov 2014 (Local Time) from KGRK Reporting Station
Clear Clear  
Wind Chill: 70°   Ceiling: Unl
Heat Index: 70°   Visibility: 10mi
Dew Point: 34°   Wind: 10mph
Humidity: 27%   Direction: 270°W
Pressure: 29.62"   Gusts: NA
Location:  30.5793°N, 97.5096°W
Report Text: KGRK 240058Z AUTO 27009KT 10SM CLR 21/01 A2962 RMK AO2 SLP025 T02110011
Loading
Personal Weather Stations






























Interactive Weather Map New forecast layout! Learn more

10-Day Weather Forecast

Advertisements
Track Severe Weather on mobile